CW4666 Figueira PT current weather conditions

sailwx.info

Wind from 097 at 5 knots gusting 7

Air temperature 10.6° C
Dewpoint 8.8° C

Last reported at 2020-Jan-24 09:06 UTC.
Time now 2020-Jan-24 10:21 UTC

Location: N 40°10' W 008°50'.
View on Google Maps.

See reports from other nearby stations

  
Tides and Currents Weather Stations Pressure Air Temp Water Temp Dewpoint Dewpoint Depression Visibility Wind Speed Wind Dir Waves Ship Positions
date/time (UTC)wind fromknots sea level pressurealtimeterstation pressurevisibilityair tempwater tempwave heightnotes
2020-Jan-24 09:06 097 5 gusting 7 10.6
2020-Jan-24 09:01 079 4 gusting 10 10.6
2020-Jan-24 08:06 073 2 gusting 8 10.0
2020-Jan-24 07:06 079 2 gusting 6 10.0
2020-Jan-24 07:01 076 2 gusting 6 10.0
2020-Jan-24 06:06 077 1 gusting 5 9.4
2020-Jan-24 06:01 094 0 gusting 10 9.4
2020-Jan-24 05:06 087 5 gusting 8 10.0
2020-Jan-24 05:01 086 4 gusting 7 10.0
2020-Jan-24 04:06 107 3 gusting 6 10.0
2020-Jan-24 04:01 108 4 gusting 7 10.0
2020-Jan-24 03:06 090 4 gusting 7 10.0
2020-Jan-24 03:01 090 4 gusting 10 10.0
2020-Jan-24 02:01 071 2 gusting 5 10.0
2020-Jan-24 01:06 070 3 gusting 5 10.0
2020-Jan-24 01:01 069 2 gusting 6 10.0
2020-Jan-24 00:01 071 2 gusting 6 9.4
2020-Jan-23 23:06 067 4 gusting 8 9.4
2020-Jan-23 22:06 073 5 gusting 6 9.4
2020-Jan-23 22:01 069 5 gusting 11 9.4
2020-Jan-23 20:01 066 6 gusting 11 9.4
2020-Jan-23 19:06 063 5 gusting 6 9.4
2020-Jan-23 19:01 059 4 gusting 10 9.4
2020-Jan-23 17:06 088 0 gusting 2 10.6
2020-Jan-23 17:01 088 10.6
2020-Jan-23 16:01 071 1 gusting 8 11.1
2020-Jan-23 15:01 062 4 gusting 13 11.7
2020-Jan-23 14:06 109 4 gusting 13 12.8
2020-Jan-23 13:06 091 5 gusting 10 12.2
2020-Jan-23 12:06 072 6 gusting 15 11.7
2020-Jan-23 10:06 051 4 gusting 6 10.0
2020-Jan-23 10:01 077 5 gusting 11 10.0
2020-Jan-23 09:01 065 2 gusting 10 8.9
2020-Jan-23 08:06 066 5 gusting 11 8.3
2020-Jan-23 06:01 066 4 gusting 6 8.3
2020-Jan-23 05:01 058 9.4
2020-Jan-23 04:06 058 10.0
2020-Jan-23 04:01 058 0 gusting 4 10.0
2020-Jan-23 03:06 059 10.0
2020-Jan-23 02:06 058 10.0
2020-Jan-23 02:01 058 10.0
2020-Jan-23 00:06 057 4 gusting 7 11.1
2020-Jan-22 23:06 042 2 gusting 10 12.2
2020-Jan-22 20:06 038 11.7
2020-Jan-22 19:06 038 11.7
2020-Jan-22 18:06 038 12.2
2020-Jan-22 16:06 038 0 gusting 5 13.3
2020-Jan-22 15:06 030 13.3
2020-Jan-22 15:01 030 13.3
2020-Jan-22 14:06 062 2 gusting 13 13.9
2020-Jan-22 11:06 059 6 gusting 22 11.1
2020-Jan-22 10:01 069 5 gusting 15 10.6